This is the latest recevied weather packets stored in our database for station/object K1RTA-1. If no packets are shown the sender has not sent any weather packets the latest 10 day(s).
| Time | Temp. | Humidity | Pressure | Rain* | Wind** | Luminosity | Snow |
|---|---|---|---|---|---|---|---|
| 1777248502 | 8.33° C | 75% | 1022.4 hPa | 0 mm | - | - | - |
| 1777247602 | 8.89° C | 74% | 1022.4 hPa | 0 mm | - | - | - |
| 1777246702 | 8.89° C | 73% | 1022.1 hPa | 0 mm | - | - | - |
| 1777245802 | 9.44° C | 72% | 1022.1 hPa | 0 mm | - | - | - |
| 1777244902 | 9.44° C | 71% | 1022.1 hPa | 0 mm | - | - | - |
| 1777244002 | 10° C | 70% | 1021.9 hPa | 0 mm | - | - | - |
| 1777243102 | 10° C | 68% | 1021.9 hPa | 0 mm | - | - | - |
| 1777242201 | 10.56° C | 65% | 1022 hPa | 0 mm | - | - | - |
| 1777241302 | 11.11° C | 63% | 1021.9 hPa | 0 mm | - | - | - |
| 1777240402 | 11.11° C | 60% | 1021.9 hPa | 0 mm | - | - | - |
| 1777239501 | 11.67° C | 56% | 1021.9 hPa | 0 mm | - | - | - |
| 1777238602 | 11.67° C | 56% | 1021.8 hPa | 0 mm | - | - | - |
| 1777237702 | 11.67° C | 55% | 1021.7 hPa | 0 mm | - | - | - |
| 1777236801 | 11.67° C | 53% | 1021.5 hPa | 0 mm | - | - | - |
| 1777235901 | 11.67° C | 54% | 1021.4 hPa | 0 mm | - | - | - |
| 1777235002 | 11.67° C | 60% | 1021.5 hPa | 0 mm | - | - | - |
| 1777234103 | 11.67° C | 61% | 1021.7 hPa | 0 mm | - | - | - |
| 1777233202 | 11.11° C | 64% | 1021.7 hPa | 0 mm | - | - | - |
| 1777232301 | 11.11° C | 64% | 1021.7 hPa | 0 mm | - | - | - |
| 1777231401 | 11.67° C | 62% | 1021.8 hPa | 0 mm | - | - | - |
| 1777230501 | 12.22° C | 58% | 1021.9 hPa | 0 mm | - | - | - |
| 1777229603 | 12.22° C | 57% | 1021.9 hPa | 0 mm | - | - | - |
| 1777228702 | 12.22° C | 54% | 1022 hPa | 0 mm | - | - | - |
| 1777227802 | 12.22° C | 56% | 1022 hPa | 0 mm | - | - | - |
| 1777226901 | 12.78° C | 54% | 1022.1 hPa | 0 mm | - | - | - |
* Rain latest hour (hover to see other rain measurements)
** Current wind speed in m/s (hover to see current wind gust speed)